Time;durP1;ratioP1;P1;durP2;ratioP2;P2;SDS_P1;SDS_P2;PMS_P1;PMS_P2;Temp;Humidity;BMP_temperature;BMP_pressure;BME280_temperature;BME280_humidity;BME280_pressure;Samples;Min_cycle;Max_cycle;Signal;HPM_P1;HPM_P2
2023/12/03 00:00:17;;;;;;;;;;;;;;;20.08;49.77;96038.47;617488;230;62590;-62
2023/12/03 00:02:44;;;;;;;;;;;;;;;20.08;49.76;96049.95;617446;230;67055;-62
2023/12/03 00:05:12;;;;;;;;;;;;;;;20.09;49.73;96045.41;617411;230;67462;-62
2023/12/03 00:07:40;;;;;;;;;;;;;;;20.09;49.67;96045.41;617425;230;64938;-62
2023/12/03 00:10:08;;;;;;;;;;;;;;;20.08;49.67;96036.62;617438;230;67004;-62
2023/12/03 00:12:38;;;;;;;;;;;;;;;20.07;49.62;96029.68;617424;230;67096;-62
2023/12/03 00:15:05;;;;;;;;;;;;;;;20.09;49.67;96032.86;617399;228;64628;-62
2023/12/03 00:17:32;;;;;;;;;;;;;;;20.09;49.66;96040.08;617439;230;67204;-62
2023/12/03 00:20:00;;;;;;;;;;;;;;;20.08;49.68;96030.47;617412;230;67217;-61
2023/12/03 00:22:27;;;;;;;;;;;;;;;20.08;49.69;96036.62;617484;230;64701;-62
2023/12/03 00:24:55;;;;;;;;;;;;;;;20.07;49.72;96040.34;617440;230;66996;-62
2023/12/03 00:27:22;;;;;;;;;;;;;;;20.07;49.70;96045.69;617428;229;67003;-62
2023/12/03 00:29:50;;;;;;;;;;;;;;;20.08;49.69;96049.14;617413;230;64807;-62
2023/12/03 00:32:17;;;;;;;;;;;;;;;20.08;49.69;96049.14;617401;230;67395;-62
2023/12/03 00:34:45;;;;;;;;;;;;;;;20.06;49.68;96041.44;617577;228;66757;-66
2023/12/03 00:37:12;;;;;;;;;;;;;;;20.07;49.66;96043.02;617669;229;64796;-66
2023/12/03 00:39:40;;;;;;;;;;;;;;;20.08;49.68;96059.81;617611;229;64944;-62
2023/12/03 00:42:07;;;;;;;;;;;;;;;20.07;49.66;96058.23;617634;229;64815;-62
2023/12/03 00:44:35;;;;;;;;;;;;;;;20.08;49.68;96049.95;617615;229;64552;-61
2023/12/03 00:47:02;;;;;;;;;;;;;;;20.06;49.65;96052.11;617637;229;67056;-62
2023/12/03 00:49:30;;;;;;;;;;;;;;;20.07;49.68;96052.90;617674;229;66886;-62
2023/12/03 00:51:57;;;;;;;;;;;;;;;20.07;49.68;96069.69;617629;229;62539;-62
2023/12/03 00:54:25;;;;;;;;;;;;;;;20.06;49.71;96068.11;617600;229;66927;-62
2023/12/03 00:56:52;;;;;;;;;;;;;;;20.07;49.71;96067.02;617596;229;66862;-62
2023/12/03 00:59:20;;;;;;;;;;;;;;;20.06;49.69;96068.11;617626;229;64538;-62
2023/12/03 01:01:47;;;;;;;;;;;;;;;20.07;49.70;96068.90;617678;229;67103;-62
2023/12/03 01:04:15;;;;;;;;;;;;;;;20.07;49.68;96071.57;617627;229;66945;-62
2023/12/03 01:06:43;;;;;;;;;;;;;;;20.06;49.70;96062.78;617577;229;64724;-62
2023/12/03 01:09:11;;;;;;;;;;;;;;;20.06;49.71;96070.78;617624;229;67084;-61
2023/12/03 01:11:42;;;;;;;;;;;;;;;20.06;49.70;96073.45;617652;229;66791;-62
2023/12/03 01:14:10;;;;;;;;;;;;;;;20.06;49.69;96065.45;617417;229;64626;-62
2023/12/03 01:16:37;;;;;;;;;;;;;;;20.06;49.69;96070.78;617661;229;67182;-62
2023/12/03 01:19:05;;;;;;;;;;;;;;;20.07;49.71;96076.91;617583;229;65170;-62
2023/12/03 01:21:32;;;;;;;;;;;;;;;20.06;49.70;96080.66;617618;229;62605;-62
2023/12/03 01:24:00;;;;;;;;;;;;;;;20.05;49.71;96087.88;617617;229;64873;-62
2023/12/03 01:26:28;;;;;;;;;;;;;;;20.06;49.71;96091.33;617630;229;64950;-62
2023/12/03 01:28:56;;;;;;;;;;;;;;;20.07;49.70;96091.03;617671;229;64950;-62
2023/12/03 01:31:24;;;;;;;;;;;;;;;20.06;49.70;96092.12;617640;229;64828;-62
2023/12/03 01:33:51;;;;;;;;;;;;;;;20.05;49.69;96095.88;617533;229;63781;-62
2023/12/03 01:36:18;;;;;;;;;;;;;;;20.06;49.69;96097.45;617657;229;63451;-67
2023/12/03 01:38:46;;;;;;;;;;;;;;;20.04;49.71;96094.27;617648;229;66712;-67
2023/12/03 01:41:13;;;;;;;;;;;;;;;20.06;49.72;96099.33;617684;229;67057;-66
2023/12/03 01:43:48;;;;;;;;;;;;;;;20.06;49.68;96096.66;617658;229;64921;-67
2023/12/03 01:46:16;;;;;;;;;;;;;;;20.05;49.68;96095.88;617631;229;65055;-66
2023/12/03 01:48:44;;;;;;;;;;;;;;;20.06;49.67;96097.45;617655;229;64959;-66
2023/12/03 01:51:12;;;;;;;;;;;;;;;20.05;49.66;96095.88;617654;229;64802;-67
2023/12/03 01:53:39;;;;;;;;;;;;;;;20.04;49.65;96083.60;617649;229;64954;-66
2023/12/03 01:56:08;;;;;;;;;;;;;;;20.05;49.62;96085.20;617676;229;65011;-66
2023/12/03 01:58:35;;;;;;;;;;;;;;;20.05;49.61;96087.88;617644;229;64812;-66
2023/12/03 02:01:03;;;;;;;;;;;;;;;20.04;49.61;96088.94;617628;229;67197;-66
2023/12/03 02:03:30;;;;;;;;;;;;;;;20.05;49.61;96092.39;617669;229;66883;-66
2023/12/03 02:06:04;;;;;;;;;;;;;;;20.05;49.64;96081.72;617653;229;64711;-66
2023/12/03 02:08:33;;;;;;;;;;;;;;;20.04;49.65;96086.27;617672;229;64770;-66
2023/12/03 02:11:01;;;;;;;;;;;;;;;20.04;49.69;96086.27;617665;229;64869;-67
2023/12/03 02:13:29;;;;;;;;;;;;;;;20.04;49.67;96090.81;617618;229;64587;-66
2023/12/03 02:15:57;;;;;;;;;;;;;;;20.04;49.69;96086.27;617624;229;67255;-66
2023/12/03 02:18:28;;;;;;;;;;;;;;;20.03;49.67;96087.36;617633;229;66959;-66
2023/12/03 02:20:56;;;;;;;;;;;;;;;20.03;49.65;96095.36;617701;229;64816;-66
2023/12/03 02:23:23;;;;;;;;;;;;;;;20.03;49.61;96095.36;617615;229;64931;-66
2023/12/03 02:25:51;;;;;;;;;;;;;;;20.03;49.62;96100.70;617669;229;64550;-66
2023/12/03 02:28:18;;;;;;;;;;;;;;;20.04;49.62;96102.27;617667;229;62571;-66
2023/12/03 02:30:46;;;;;;;;;;;;;;;20.03;49.63;96098.03;617641;229;65766;-66
2023/12/03 02:33:13;;;;;;;;;;;;;;;20.03;49.62;96092.70;617600;229;65345;-66
2023/12/03 02:35:41;;;;;;;;;;;;;;;20.04;49.63;96101.48;617707;229;62432;-66
2023/12/03 02:38:08;;;;;;;;;;;;;;;20.04;49.61;96104.15;617637;229;64972;-66
2023/12/03 02:40:38;;;;;;;;;;;;;;;20.03;49.60;96099.91;617640;229;64898;-66
2023/12/03 02:43:05;;;;;;;;;;;;;;;20.02;49.64;96093.75;617636;229;64737;-66
2023/12/03 02:45:33;;;;;;;;;;;;;;;20.02;49.64;96088.42;617647;229;67862;-66
2023/12/03 02:48:00;;;;;;;;;;;;;;;20.04;49.62;96096.15;617694;229;66880;-66
2023/12/03 02:50:28;;;;;;;;;;;;;;;20.02;49.60;96104.42;617681;229;64481;-66
2023/12/03 02:52:55;;;;;;;;;;;;;;;20.02;49.63;96109.76;617603;229;66884;-66
2023/12/03 02:55:23;;;;;;;;;;;;;;;20.03;49.63;96116.70;617643;229;66856;-66
2023/12/03 02:57:50;;;;;;;;;;;;;;;20.02;49.63;96112.42;617603;229;62499;-66
2023/12/03 03:00:18;;;;;;;;;;;;;;;20.02;49.64;96112.42;617698;229;67444;-67
2023/12/03 03:02:46;;;;;;;;;;;;;;;20.03;49.63;96107.91;617636;229;67078;-66
2023/12/03 03:05:13;;;;;;;;;;;;;;;20.01;49.62;96108.18;617609;229;64570;-66
2023/12/03 03:07:40;;;;;;;;;;;;;;;20.02;49.60;96109.76;617623;229;64850;-66
2023/12/03 03:10:08;;;;;;;;;;;;;;;20.01;49.64;96113.52;617648;229;64489;-62
2023/12/03 03:12:36;;;;;;;;;;;;;;;20.01;49.63;96116.19;617701;229;64706;-62
2023/12/03 03:15:04;;;;;;;;;;;;;;;20.02;49.65;96117.76;617676;229;66708;-62
2023/12/03 03:17:31;;;;;;;;;;;;;;;20.03;49.66;96115.91;617644;229;66780;-62
2023/12/03 03:19:59;;;;;;;;;;;;;;;20.02;49.65;96115.09;617635;229;64702;-62
2023/12/03 03:22:26;;;;;;;;;;;;;;;20.02;49.62;96119.64;617638;229;66624;-62
2023/12/03 03:24:54;;;;;;;;;;;;;;;20.01;49.62;96118.84;617723;229;66759;-62
2023/12/03 03:27:21;;;;;;;;;;;;;;;20.02;49.59;96119.64;617674;229;64509;-62
2023/12/03 03:29:49;;;;;;;;;;;;;;;20.02;49.58;96122.30;617664;229;66712;-62
2023/12/03 03:32:16;;;;;;;;;;;;;;;20.01;49.60;96148.19;617649;229;66763;-61
2023/12/03 03:34:44;;;;;;;;;;;;;;;20.02;49.62;96179.09;617602;229;64823;-61
2023/12/03 03:37:11;;;;;;;;;;;;;;;20.00;49.65;96183.95;617680;229;65409;-66
2023/12/03 03:39:39;;;;;;;;;;;;;;;20.02;49.66;96191.64;617674;229;66599;-66
2023/12/03 03:42:06;;;;;;;;;;;;;;;20.02;49.65;96203.10;617632;229;64680;-66
2023/12/03 03:44:34;;;;;;;;;;;;;;;20.01;49.63;96208.73;617634;229;67207;-66
2023/12/03 03:47:01;;;;;;;;;;;;;;;20.01;49.60;96222.07;617594;229;67229;-62
2023/12/03 03:49:29;;;;;;;;;;;;;;;20.01;49.58;96230.08;617686;229;64812;-62
2023/12/03 03:51:57;;;;;;;;;;;;;;;20.00;49.58;96234.62;617625;229;64979;-62
2023/12/03 03:54:24;;;;;;;;;;;;;;;20.01;49.57;96246.08;617658;229;66968;-62
2023/12/03 03:56:52;;;;;;;;;;;;;;;20.00;49.57;96255.13;617618;229;64515;-62
2023/12/03 03:59:19;;;;;;;;;;;;;;;20.01;49.57;96262.08;617635;229;67066;-62
2023/12/03 04:01:47;;;;;;;;;;;;;;;20.00;49.57;96266.63;617617;229;67038;-62
2023/12/03 04:04:14;;;;;;;;;;;;;;;20.01;49.57;96272.75;617696;229;64844;-62
2023/12/03 04:06:44;;;;;;;;;;;;;;;20.00;49.59;96279.95;617628;229;66948;-61
2023/12/03 04:09:12;;;;;;;;;;;;;;;20.01;49.60;96286.88;617649;229;67078;-67
2023/12/03 04:11:41;;;;;;;;;;;;;;;20.00;49.59;96287.95;617596;229;64702;-63
2023/12/03 04:14:10;;;;;;;;;;;;;;;20.01;49.58;96294.88;617298;229;64544;-63
2023/12/03 04:16:38;;;;;;;;;;;;;;;20.00;49.56;96293.30;617656;229;66903;-63
2023/12/03 04:19:06;;;;;;;;;;;;;;;20.00;49.57;96298.63;617605;229;64571;-63
2023/12/03 04:21:34;;;;;;;;;;;;;;;19.99;49.54;96309.56;617628;229;67029;-63
2023/12/03 04:24:01;;;;;;;;;;;;;;;20.00;49.56;96314.63;617647;229;64913;-63
2023/12/03 04:26:29;;;;;;;;;;;;;;;19.98;49.56;96316.77;617598;229;63516;-63
2023/12/03 04:28:57;;;;;;;;;;;;;;;19.99;49.57;96323.69;617695;229;65038;-63
2023/12/03 04:31:27;;;;;;;;;;;;;;;19.99;49.54;96334.36;617636;229;65831;-63
2023/12/03 04:33:56;;;;;;;;;;;;;;;20.00;49.52;96348.48;617469;229;64899;-62
2023/12/03 04:36:24;;;;;;;;;;;;;;;19.98;49.54;96348.78;617426;230;65036;-61
2023/12/03 04:38:51;;;;;;;;;;;;;;;20.00;49.51;96365.30;617436;230;64944;-62
2023/12/03 04:41:19;;;;;;;;;;;;;;;20.00;49.50;96361.81;617454;230;62545;-66
2023/12/03 04:43:47;;;;;;;;;;;;;;;19.99;49.52;96374.36;617420;230;67250;-62
2023/12/03 04:46:14;;;;;;;;;;;;;;;19.99;49.56;96376.23;617443;230;67060;-62
2023/12/03 04:48:42;;;;;;;;;;;;;;;19.98;49.53;96375.45;617407;230;64796;-62
2023/12/03 04:51:12;;;;;;;;;;;;;;;19.98;49.53;96380.78;617412;230;67175;-62
2023/12/03 04:53:40;;;;;;;;;;;;;;;19.98;49.51;96380.78;617412;230;66898;-62
2023/12/03 04:56:08;;;;;;;;;;;;;;;19.98;49.50;96386.12;617479;230;64686;-62
2023/12/03 04:58:36;;;;;;;;;;;;;;;19.98;49.49;96388.78;617420;230;67278;-62
2023/12/03 05:01:03;;;;;;;;;;;;;;;19.98;49.50;96407.45;617392;229;65229;-62
2023/12/03 05:03:31;;;;;;;;;;;;;;;19.98;49.50;96412.00;617423;230;64702;-62
2023/12/03 05:05:58;;;;;;;;;;;;;;;19.99;49.49;96409.03;617419;230;64992;-62
2023/12/03 05:08:26;;;;;;;;;;;;;;;19.99;49.48;96419.70;617447;230;66788;-62
2023/12/03 05:10:53;;;;;;;;;;;;;;;19.99;49.49;96424.24;617424;230;64757;-62
2023/12/03 05:13:21;;;;;;;;;;;;;;;19.97;49.49;96421.88;617426;230;67232;-62
2023/12/03 05:15:48;;;;;;;;;;;;;;;19.98;49.49;96436.79;617465;230;64677;-62
2023/12/03 05:18:16;;;;;;;;;;;;;;;19.98;49.51;96420.00;617487;230;62578;-62
2023/12/03 05:20:43;;;;;;;;;;;;;;;19.97;49.49;96429.88;617470;229;66763;-62
2023/12/03 05:23:12;;;;;;;;;;;;;;;19.98;49.45;96428.00;617458;230;67097;-62
2023/12/03 05:25:39;;;;;;;;;;;;;;;19.97;49.44;96443.20;617448;230;62623;-62
2023/12/03 05:28:07;;;;;;;;;;;;;;;19.97;49.44;96443.20;617438;230;67621;-63
2023/12/03 05:30:34;;;;;;;;;;;;;;;19.98;49.42;96458.13;617450;230;66901;-62
2023/12/03 05:33:02;;;;;;;;;;;;;;;19.96;49.42;96455.72;617507;229;64879;-63
2023/12/03 05:35:29;;;;;;;;;;;;;;;19.97;49.42;96461.88;617630;229;67315;-62
2023/12/03 05:37:57;;;;;;;;;;;;;;;19.97;49.41;96459.21;617647;229;65117;-63
2023/12/03 05:40:24;;;;;;;;;;;;;;;19.95;49.40;96458.69;617644;229;64391;-62
2023/12/03 05:42:52;;;;;;;;;;;;;;;19.96;49.42;96466.39;617706;229;67195;-62
2023/12/03 05:45:19;;;;;;;;;;;;;;;19.96;49.41;96463.72;617686;229;66840;-62
2023/12/03 05:47:47;;;;;;;;;;;;;;;19.96;49.44;96469.05;617616;229;64575;-67
2023/12/03 05:50:14;;;;;;;;;;;;;;;19.97;49.47;96485.88;617616;229;64792;-67
2023/12/03 05:52:42;;;;;;;;;;;;;;;19.97;49.46;96485.88;617681;229;66883;-67
2023/12/03 05:55:09;;;;;;;;;;;;;;;19.96;49.48;96478.94;617643;229;64671;-67
2023/12/03 05:57:37;;;;;;;;;;;;;;;19.96;49.48;96489.60;617696;229;67412;-67
2023/12/03 06:00:06;;;;;;;;;;;;;;;19.97;49.49;96509.88;617652;229;66974;-67
2023/12/03 06:02:36;;;;;;;;;;;;;;;19.96;49.50;96516.27;617606;229;63467;-67
2023/12/03 06:05:04;;;;;;;;;;;;;;;19.94;49.49;96513.90;617643;229;64893;-67
2023/12/03 06:07:31;;;;;;;;;;;;;;;19.96;49.53;96530.40;617701;229;66820;-67
2023/12/03 06:09:59;;;;;;;;;;;;;;;19.95;49.51;96525.36;617614;229;64580;-67
2023/12/03 06:12:27;;;;;;;;;;;;;;;19.94;49.49;96534.41;617656;227;67176;-67
2023/12/03 06:14:55;;;;;;;;;;;;;;;19.95;49.50;96546.69;617542;229;67405;-67
2023/12/03 06:17:22;;;;;;;;;;;;;;;19.94;49.49;96545.08;617633;229;62453;-67
2023/12/03 06:19:50;;;;;;;;;;;;;;;19.94;49.53;96559.23;617621;229;64837;-62
2023/12/03 06:22:17;;;;;;;;;;;;;;;19.94;49.56;96569.91;617632;229;64888;-63
2023/12/03 06:24:45;;;;;;;;;;;;;;;19.94;49.53;96577.91;617671;229;62609;-63
2023/12/03 06:27:12;;;;;;;;;;;;;;;19.94;49.53;96572.57;617655;229;64988;-63
2023/12/03 06:29:40;;;;;;;;;;;;;;;19.94;49.53;96585.08;617604;227;65014;-67
2023/12/03 06:32:07;;;;;;;;;;;;;;;19.94;49.54;96577.91;619347;225;64681;-67
2023/12/03 06:34:35;;;;;;;;;;;;;;;19.94;49.54;96593.91;617643;229;66906;-67
2023/12/03 06:37:04;;;;;;;;;;;;;;;19.94;49.53;96599.24;617671;229;64989;-67
2023/12/03 06:39:32;;;;;;;;;;;;;;;19.95;49.52;96605.37;617473;229;64683;-67
2023/12/03 06:41:59;;;;;;;;;;;;;;;19.94;49.54;96611.75;617432;229;65205;-67
2023/12/03 06:44:27;;;;;;;;;;;;;;;19.94;49.54;96609.91;617421;229;64916;-67
2023/12/03 06:46:54;;;;;;;;;;;;;;;19.95;49.56;96616.03;617435;229;62523;-67
2023/12/03 06:49:22;;;;;;;;;;;;;;;19.94;49.54;96627.75;617454;229;67142;-67
2023/12/03 06:51:49;;;;;;;;;;;;;;;19.95;49.54;96632.03;617369;229;64836;-68
2023/12/03 06:54:17;;;;;;;;;;;;;;;19.94;49.55;96620.58;617404;229;64436;-67
2023/12/03 06:56:44;;;;;;;;;;;;;;;19.93;49.54;96618.96;617370;229;67207;-68
2023/12/03 06:59:12;;;;;;;;;;;;;;;19.93;49.53;96629.63;617283;229;67041;-67
2023/12/03 07:01:39;;;;;;;;;;;;;;;19.93;49.54;96623.50;617678;229;64632;-67
2023/12/03 07:04:07;;;;;;;;;;;;;;;19.94;49.56;96625.91;617623;229;67057;-68
2023/12/03 07:06:34;;;;;;;;;;;;;;;19.94;49.56;96641.09;617626;229;66893;-67
2023/12/03 07:09:02;;;;;;;;;;;;;;;19.94;49.55;96647.25;617628;229;64572;-67
2023/12/03 07:11:29;;;;;;;;;;;;;;;19.94;49.56;96649.09;618047;224;67084;-63
2023/12/03 07:13:57;;;;;;;;;;;;;;;19.93;49.56;96648.30;617949;224;66900;-63
2023/12/03 07:16:24;;;;;;;;;;;;;;;19.91;52.96;96637.09;617688;229;64531;-63
2023/12/03 07:18:52;;;;;;;;;;;;;;;19.91;49.75;96636.30;617653;229;64979;-63
2023/12/03 07:21:21;;;;;;;;;;;;;;;19.91;49.60;96646.97;619892;224;47627;-64
2023/12/03 07:23:49;;;;;;;;;;;;;;;19.91;49.63;96654.97;619187;224;64528;-63
2023/12/03 07:26:16;;;;;;;;;;;;;;;19.92;49.62;96656.59;623090;227;64507;-63
2023/12/03 07:28:44;;;;;;;;;;;;;;;19.93;49.70;96652.84;618386;224;64859;-63
2023/12/03 07:31:11;;;;;;;;;;;;;;;19.93;49.82;96645.63;624393;227;64613;-64
2023/12/03 07:33:39;;;;;;;;;;;;;;;19.94;49.86;96655.25;622925;226;66811;-63
2023/12/03 07:36:07;;;;;;;;;;;;;;;19.96;49.93;96645.08;617609;229;66671;-64
2023/12/03 07:38:34;;;;;;;;;;;;;;;19.97;50.00;96653.91;617628;227;64574;-63
2023/12/03 07:41:02;;;;;;;;;;;;;;;19.96;50.10;96647.75;620148;224;68714;-63
2023/12/03 07:43:29;;;;;;;;;;;;;;;19.97;50.16;96661.91;623905;227;67025;-63
2023/12/03 07:45:57;;;;;;;;;;;;;;;19.97;50.18;96661.91;624747;227;64692;-63
2023/12/03 07:48:24;;;;;;;;;;;;;;;19.98;50.23;96670.70;624736;227;64632;-63
2023/12/03 07:50:52;;;;;;;;;;;;;;;19.97;50.23;96661.91;624696;227;67312;-63
2023/12/03 07:53:19;;;;;;;;;;;;;;;19.99;50.23;96665.08;624762;227;64743;-63
2023/12/03 07:55:50;;;;;;;;;;;;;;;19.98;50.23;96668.83;624538;227;67307;-63
2023/12/03 07:58:17;;;;;;;;;;;;;;;19.99;50.23;96674.95;624707;227;67062;-63
2023/12/03 08:00:45;;;;;;;;;;;;;;;19.98;50.20;96674.16;624726;227;64747;-63
2023/12/03 08:03:12;;;;;;;;;;;;;;;19.99;50.16;96691.75;618728;224;66979;-63
2023/12/03 08:05:41;;;;;;;;;;;;;;;19.99;50.14;96691.75;617650;224;66913;-63
2023/12/03 08:08:08;;;;;;;;;;;;;;;20.00;50.17;96692.55;617235;229;64664;-63
2023/12/03 08:10:36;;;;;;;;;;;;;;;19.98;50.17;96690.16;617502;229;63878;-63
2023/12/03 08:13:03;;;;;;;;;;;;;;;20.00;50.17;96695.21;617633;229;64448;-63
2023/12/03 08:15:30;;;;;;;;;;;;;;;20.00;50.20;96703.22;617648;229;62610;-67
2023/12/03 08:17:58;;;;;;;;;;;;;;;20.00;50.29;96703.22;617559;229;64804;-67
2023/12/03 08:20:25;;;;;;;;;;;;;;;20.00;50.17;96704.03;617676;229;67108;-67
2023/12/03 08:22:53;;;;;;;;;;;;;;;20.01;50.12;96708.29;617613;229;64902;-67
2023/12/03 08:25:24;;;;;;;;;;;;;;;20.01;50.12;96710.95;610573;229;67187;-67
2023/12/03 08:27:53;;;;;;;;;;;;;;;20.01;50.08;96715.50;604783;229;67361;-67
2023/12/03 08:30:21;;;;;;;;;;;;;;;20.02;50.04;96723.21;617598;229;65017;-67
2023/12/03 08:32:52;;;;;;;;;;;;;;;20.03;50.06;96727.50;617536;229;65140;-67
2023/12/03 08:35:21;;;;;;;;;;;;;;;20.02;50.08;96733.09;609912;230;69763;-67
2023/12/03 08:37:52;;;;;;;;;;;;;;;20.02;50.04;96733.88;616986;230;64801;-66
2023/12/03 08:40:22;;;;;;;;;;;;;;;20.02;50.04;96731.22;616888;230;67157;-68
2023/12/03 08:42:54;;;;;;;;;;;;;;;20.02;50.03;96722.42;617264;227;46715;-68
2023/12/03 08:45:23;;;;;;;;;;;;;;;20.03;50.04;96724.03;612474;227;44750;-67
2023/12/03 08:47:53;;;;;;;;;;;;;;;20.02;50.02;96723.21;620687;227;48420;-68
2023/12/03 08:50:26;;;;;;;;;;;;;;;20.01;50.03;96723.50;616653;227;65092;-67
2023/12/03 08:52:50;;;;;;;;;;;;;;;20.02;50.04;96739.22;623123;227;64851;-67
2023/12/03 08:55:19;;;;;;;;;;;;;;;20.03;50.02;96745.38;623869;227;67211;-66
2023/12/03 08:57:48;;;;;;;;;;;;;;;20.03;50.05;96740.04;623999;227;47067;-66
2023/12/03 09:00:16;;;;;;;;;;;;;;;20.02;50.05;96747.22;624155;227;65022;-66
2023/12/03 09:02:46;;;;;;;;;;;;;;;20.03;50.05;96756.05;624119;227;66881;-66
2023/12/03 09:05:14;;;;;;;;;;;;;;;20.02;50.06;96749.88;624116;227;67590;-68
2023/12/03 09:07:43;;;;;;;;;;;;;;;20.04;50.05;96757.63;624079;227;64707;-67
2023/12/03 09:10:13;;;;;;;;;;;;;;;20.03;50.01;96766.72;623980;227;49249;-67
2023/12/03 09:12:42;;;;;;;;;;;;;;;20.04;50.00;96777.09;616954;227;64994;-67
2023/12/03 09:15:10;;;;;;;;;;;;;;;20.04;50.04;96773.64;624097;227;64680;-67
2023/12/03 09:17:38;;;;;;;;;;;;;;;20.03;50.02;96778.18;624126;227;67192;-67
2023/12/03 09:20:07;;;;;;;;;;;;;;;20.04;50.03;96771.77;624078;227;65171;-67
2023/12/03 09:22:36;;;;;;;;;;;;;;;20.03;50.04;96772.84;616865;227;64861;-67
2023/12/03 09:25:07;;;;;;;;;;;;;;;20.04;50.03;96779.77;616905;227;65268;-67
2023/12/03 09:27:34;;;;;;;;;;;;;;;20.02;50.00;96771.22;617045;227;67088;-67
2023/12/03 09:30:04;;;;;;;;;;;;;;;20.03;49.99;96783.52;624093;227;64780;-68
2023/12/03 09:32:32;;;;;;;;;;;;;;;20.03;50.01;96777.38;624046;227;65061;-67
2023/12/03 09:35:00;;;;;;;;;;;;;;;20.03;50.01;96782.72;619410;228;67085;-67
2023/12/03 09:37:29;;;;;;;;;;;;;;;20.05;50.04;96781.38;619412;229;64865;-66
2023/12/03 09:39:57;;;;;;;;;;;;;;;20.04;50.01;96786.97;606039;229;65032;-67
2023/12/03 09:42:26;;;;;;;;;;;;;;;20.03;50.00;96780.84;619438;229;67049;-66
2023/12/03 09:45:01;;;;;;;;;;;;;;;20.05;49.99;96785.89;619434;229;64775;-66
2023/12/03 09:47:31;;;;;;;;;;;;;;;20.05;49.98;96793.89;619394;229;67262;-67
2023/12/03 09:50:02;;;;;;;;;;;;;;;20.04;50.01;96795.77;619443;229;64776;-66
2023/12/03 09:52:33;;;;;;;;;;;;;;;20.04;50.01;96793.11;619381;229;44580;-68
2023/12/03 09:55:02;;;;;;;;;;;;;;;20.04;50.04;96785.10;619455;229;67131;-68
2023/12/03 09:57:33;;;;;;;;;;;;;;;20.04;50.00;96790.44;619411;229;65388;-67
2023/12/03 10:00:10;;;;;;;;;;;;;;;20.04;49.99;96789.64;619391;229;64720;-67
2023/12/03 10:02:37;;;;;;;;;;;;;;;20.05;49.98;96783.23;619241;229;39029;-67
2023/12/03 10:05:05;;;;;;;;;;;;;;;20.04;50.00;96778.97;619450;228;64865;-67
2023/12/03 10:07:33;;;;;;;;;;;;;;;20.04;49.97;96779.77;619462;229;62701;-68
2023/12/03 10:10:01;;;;;;;;;;;;;;;20.04;49.98;96778.97;619434;229;67203;-66
2023/12/03 10:12:30;;;;;;;;;;;;;;;20.04;49.97;96779.77;619427;229;64951;-68
2023/12/03 10:14:58;;;;;;;;;;;;;;;20.04;49.98;96785.10;619435;229;62660;-67
2023/12/03 10:17:27;;;;;;;;;;;;;;;20.04;49.97;96778.97;619415;229;64720;-67
2023/12/03 10:19:55;;;;;;;;;;;;;;;20.04;49.98;96779.77;619474;229;67053;-67
2023/12/03 10:22:32;;;;;;;;;;;;;;;20.05;49.97;96772.55;619392;229;64443;-67
2023/12/03 10:24:59;;;;;;;;;;;;;;;20.04;49.97;96766.42;619391;229;67473;-67
2023/12/03 10:27:30;;;;;;;;;;;;;;;20.03;49.98;96756.84;619403;229;67742;-66
2023/12/03 10:29:58;;;;;;;;;;;;;;;20.06;49.96;96785.64;619431;229;64619;-67
2023/12/03 10:32:27;;;;;;;;;;;;;;;20.05;49.94;96804.56;619400;229;67133;-67
2023/12/03 10:34:56;;;;;;;;;;;;;;;20.04;49.93;96806.44;624666;226;66948;-67
2023/12/03 10:37:24;;;;;;;;;;;;;;;20.05;49.94;96799.23;624715;227;64831;-67
2023/12/03 10:39:51;;;;;;;;;;;;;;;20.04;49.91;96784.31;624760;227;67254;-68
2023/12/03 10:42:19;;;;;;;;;;;;;;;20.05;49.91;96769.89;624746;227;67004;-67
2023/12/03 10:44:47;;;;;;;;;;;;;;;20.03;49.92;96780.84;624741;227;62551;-67
2023/12/03 10:47:16;;;;;;;;;;;;;;;20.04;49.88;96800.31;624792;227;64877;-67
2023/12/03 10:49:45;;;;;;;;;;;;;;;20.05;49.89;96809.90;624736;227;66886;-67
2023/12/03 10:52:13;;;;;;;;;;;;;;;20.05;49.94;96813.39;624724;227;64715;-67
2023/12/03 10:54:41;;;;;;;;;;;;;;;20.05;49.91;96816.06;624759;227;64760;-67
2023/12/03 10:57:09;;;;;;;;;;;;;;;20.05;49.89;96797.39;624734;227;67260;-68
2023/12/03 10:59:40;;;;;;;;;;;;;;;20.06;49.90;96803.52;624777;227;64796;-68
2023/12/03 11:02:11;;;;;;;;;;;;;;;20.05;49.88;96802.72;624774;227;67083;-68
2023/12/03 11:04:44;;;;;;;;;;;;;;;20.04;49.90;96809.11;624638;227;66595;-67
2023/12/03 11:07:13;;;;;;;;;;;;;;;20.05;49.90;96824.06;624679;227;62331;-67
2023/12/03 11:09:41;;;;;;;;;;;;;;;20.04;49.89;96833.11;624740;227;67303;-68
2023/12/03 11:12:08;;;;;;;;;;;;;;;20.04;49.88;96838.45;624701;227;66152;-68
2023/12/03 11:14:36;;;;;;;;;;;;;;;20.04;49.86;96838.45;624781;227;62406;-68
2023/12/03 11:17:08;;;;;;;;;;;;;;;20.05;49.85;96834.73;624708;227;67246;-67
2023/12/03 11:19:36;;;;;;;;;;;;;;;20.04;49.87;96838.45;624721;227;66925;-66
2023/12/03 11:22:14;;;;;;;;;;;;;;;20.05;49.88;96829.40;624734;227;64552;-66
2023/12/03 11:24:58;;;;;;;;;;;;;;;20.05;49.86;96845.41;624633;227;64820;-66
2023/12/03 11:27:26;;;;;;;;;;;;;;;20.06;49.85;96851.53;624666;227;64252;-67
2023/12/03 11:29:54;;;;;;;;;;;;;;;20.05;49.88;96848.07;624812;227;64730;-66
2023/12/03 11:32:24;;;;;;;;;;;;;;;20.05;49.92;96848.07;624752;227;64527;-66
2023/12/03 11:34:53;;;;;;;;;;;;;;;20.04;49.93;96854.45;624736;226;64667;-67
2023/12/03 11:37:21;;;;;;;;;;;;;;;20.05;49.92;96872.08;624732;227;64728;-66
2023/12/03 11:39:49;;;;;;;;;;;;;;;20.05;49.94;96863.25;624737;227;64761;-66
2023/12/03 11:42:18;;;;;;;;;;;;;;;20.05;49.88;96872.08;624803;227;64563;-66
2023/12/03 11:44:46;;;;;;;;;;;;;;;20.05;49.88;96872.08;624742;227;64789;-68
2023/12/03 11:47:18;;;;;;;;;;;;;;;20.04;49.88;96872.34;623325;227;46667;-67
2023/12/03 11:49:47;;;;;;;;;;;;;;;20.05;49.87;96882.75;624766;227;64278;-67
2023/12/03 11:52:15;;;;;;;;;;;;;;;20.04;49.88;96886.47;624729;227;64726;-67
2023/12/03 11:54:44;;;;;;;;;;;;;;;20.05;49.86;96889.93;624751;227;67339;-67
2023/12/03 11:57:13;;;;;;;;;;;;;;;20.05;49.86;96882.75;624742;227;64850;-67
2023/12/03 11:59:44;;;;;;;;;;;;;;;20.05;49.85;96885.42;624736;227;64686;-67
2023/12/03 12:02:12;;;;;;;;;;;;;;;20.05;49.83;96884.59;624679;227;67204;-67
2023/12/03 12:04:39;;;;;;;;;;;;;;;20.05;49.85;96898.76;624754;227;66931;-67
2023/12/03 12:07:14;;;;;;;;;;;;;;;20.06;49.83;96912.89;624688;227;62324;-67
2023/12/03 12:09:42;;;;;;;;;;;;;;;20.06;49.85;96905.68;624793;227;67193;-67
2023/12/03 12:12:10;;;;;;;;;;;;;;;20.05;49.82;96912.09;624730;227;64792;-67
2023/12/03 12:14:37;;;;;;;;;;;;;;;20.05;49.85;96898.76;624707;227;64611;-67
2023/12/03 12:17:06;;;;;;;;;;;;;;;20.05;49.85;96909.43;624745;227;67151;-67
2023/12/03 12:19:34;;;;;;;;;;;;;;;20.05;49.81;96920.09;624650;227;72417;-67
2023/12/03 12:22:01;;;;;;;;;;;;;;;20.06;49.82;96923.56;624752;227;64645;-67
2023/12/03 12:24:29;;;;;;;;;;;;;;;20.06;49.81;96928.89;624782;227;64732;-67
2023/12/03 12:26:57;;;;;;;;;;;;;;;20.04;49.82;96923.81;624701;227;64857;-68
2023/12/03 12:29:24;;;;;;;;;;;;;;;20.05;49.81;96924.61;624740;227;62498;-67
2023/12/03 12:31:52;;;;;;;;;;;;;;;20.05;49.81;96933.44;624616;227;64779;-67
2023/12/03 12:34:20;;;;;;;;;;;;;;;20.05;49.81;96919.27;618729;227;66869;-67
2023/12/03 12:36:48;;;;;;;;;;;;;;;20.06;49.80;96935.03;617674;229;62657;-67
2023/12/03 12:39:28;;;;;;;;;;;;;;;20.05;49.81;96940.61;617628;229;67077;-68
2023/12/03 12:42:01;;;;;;;;;;;;;;;20.06;49.78;96944.91;617605;229;67002;-67
2023/12/03 12:44:45;;;;;;;;;;;;;;;20.06;49.79;96952.91;617364;229;64816;-67
2023/12/03 12:47:12;;;;;;;;;;;;;;;20.06;49.76;96950.23;617691;229;66821;-67
2023/12/03 12:49:40;;;;;;;;;;;;;;;20.05;49.77;96954.78;617622;229;66938;-67
2023/12/03 12:52:12;;;;;;;;;;;;;;;20.04;49.78;96961.16;617643;229;64821;-67